sensor_id;sensor_type;location;lat;lon;timestamp;temperature;humidity
23089;DHT22;11713;48.506;8.966;2023-06-22T00:00:53;21.80;99.90
23089;DHT22;11713;48.506;8.966;2023-06-22T00:03:21;21.80;99.90
23089;DHT22;11713;48.506;8.966;2023-06-22T00:05:48;21.80;99.90
23089;DHT22;11713;48.506;8.966;2023-06-22T00:08:17;21.60;99.90
23089;DHT22;11713;48.506;8.966;2023-06-22T00:10:44;21.60;99.90
23089;DHT22;11713;48.506;8.966;2023-06-22T00:13:11;21.60;99.90
23089;DHT22;11713;48.506;8.966;2023-06-22T00:15:39;21.50;99.90
23089;DHT22;11713;48.506;8.966;2023-06-22T00:18:06;21.50;99.90
23089;DHT22;11713;48.506;8.966;2023-06-22T00:20:33;21.50;99.90
23089;DHT22;11713;48.506;8.966;2023-06-22T00:23:03;21.40;99.90
23089;DHT22;11713;48.506;8.966;2023-06-22T00:25:39;21.40;99.90
23089;DHT22;11713;48.506;8.966;2023-06-22T00:28:08;21.30;99.90
23089;DHT22;11713;48.506;8.966;2023-06-22T00:30:35;21.30;99.90
23089;DHT22;11713;48.506;8.966;2023-06-22T00:33:01;21.20;99.90
23089;DHT22;11713;48.506;8.966;2023-06-22T00:35:27;21.30;99.90
23089;DHT22;11713;48.506;8.966;2023-06-22T00:37:56;21.30;99.90
23089;DHT22;11713;48.506;8.966;2023-06-22T00:40:31;21.30;99.90
23089;DHT22;11713;48.506;8.966;2023-06-22T00:42:58;21.20;99.90
23089;DHT22;11713;48.506;8.966;2023-06-22T00:45:25;21.20;99.90
23089;DHT22;11713;48.506;8.966;2023-06-22T00:47:52;21.10;99.90
23089;DHT22;11713;48.506;8.966;2023-06-22T00:50:22;21.00;99.90
23089;DHT22;11713;48.506;8.966;2023-06-22T00:52:51;21.00;99.90
23089;DHT22;11713;48.506;8.966;2023-06-22T00:55:19;20.80;99.90
23089;DHT22;11713;48.506;8.966;2023-06-22T00:57:48;20.70;99.90
23089;DHT22;11713;48.506;8.966;2023-06-22T01:00:15;20.80;99.90
23089;DHT22;11713;48.506;8.966;2023-06-22T01:02:43;20.70;99.90
23089;DHT22;11713;48.506;8.966;2023-06-22T01:05:16;20.80;99.90
23089;DHT22;11713;48.506;8.966;2023-06-22T01:10:30;20.80;99.90
23089;DHT22;11713;48.506;8.966;2023-06-22T01:13:02;20.80;99.90
23089;DHT22;11713;48.506;8.966;2023-06-22T01:15:49;20.80;99.90
23089;DHT22;11713;48.506;8.966;2023-06-22T01:18:17;20.80;99.90
23089;DHT22;11713;48.506;8.966;2023-06-22T01:20:44;20.80;99.90
23089;DHT22;11713;48.506;8.966;2023-06-22T01:26:38;20.90;99.90
23089;DHT22;11713;48.506;8.966;2023-06-22T01:29:08;20.90;99.90
23089;DHT22;11713;48.506;8.966;2023-06-22T01:31:39;20.90;99.90
23089;DHT22;11713;48.506;8.966;2023-06-22T01:34:06;20.90;99.90
23089;DHT22;11713;48.506;8.966;2023-06-22T01:36:35;21.00;99.90
23089;DHT22;11713;48.506;8.966;2023-06-22T01:39:02;21.00;99.90
23089;DHT22;11713;48.506;8.966;2023-06-22T01:41:34;21.00;99.90
23089;DHT22;11713;48.506;8.966;2023-06-22T01:44:01;21.00;99.90
23089;DHT22;11713;48.506;8.966;2023-06-22T01:46:29;21.00;99.90
23089;DHT22;11713;48.506;8.966;2023-06-22T01:48:55;20.90;99.90
23089;DHT22;11713;48.506;8.966;2023-06-22T01:51:22;20.90;99.90
23089;DHT22;11713;48.506;8.966;2023-06-22T01:53:47;20.90;99.90
23089;DHT22;11713;48.506;8.966;2023-06-22T01:56:16;20.80;99.90
23089;DHT22;11713;48.506;8.966;2023-06-22T02:01:45;20.60;99.90
23089;DHT22;11713;48.506;8.966;2023-06-22T02:04:20;20.60;99.90
23089;DHT22;11713;48.506;8.966;2023-06-22T02:06:47;20.50;99.90
23089;DHT22;11713;48.506;8.966;2023-06-22T02:09:17;20.50;99.90
23089;DHT22;11713;48.506;8.966;2023-06-22T02:11:45;20.40;99.90
23089;DHT22;11713;48.506;8.966;2023-06-22T02:14:14;20.40;99.90
23089;DHT22;11713;48.506;8.966;2023-06-22T02:16:42;20.40;99.90
23089;DHT22;11713;48.506;8.966;2023-06-22T02:19:08;20.40;99.90
23089;DHT22;11713;48.506;8.966;2023-06-22T02:21:34;20.30;99.90
23089;DHT22;11713;48.506;8.966;2023-06-22T02:24:00;20.30;99.90
23089;DHT22;11713;48.506;8.966;2023-06-22T02:26:29;20.30;99.90
23089;DHT22;11713;48.506;8.966;2023-06-22T02:28:56;20.30;99.90
23089;DHT22;11713;48.506;8.966;2023-06-22T02:31:24;20.20;99.90
23089;DHT22;11713;48.506;8.966;2023-06-22T02:33:59;20.20;99.90
23089;DHT22;11713;48.506;8.966;2023-06-22T02:36:26;20.20;99.90
23089;DHT22;11713;48.506;8.966;2023-06-22T02:38:53;20.30;99.90
23089;DHT22;11713;48.506;8.966;2023-06-22T02:41:20;20.20;99.90
23089;DHT22;11713;48.506;8.966;2023-06-22T02:43:48;20.10;99.90
23089;DHT22;11713;48.506;8.966;2023-06-22T02:46:14;20.20;99.90
23089;DHT22;11713;48.506;8.966;2023-06-22T02:48:41;20.10;99.90
23089;DHT22;11713;48.506;8.966;2023-06-22T02:51:08;20.10;99.90
23089;DHT22;11713;48.506;8.966;2023-06-22T02:53:36;20.10;99.90
23089;DHT22;11713;48.506;8.966;2023-06-22T02:56:03;20.00;99.90
23089;DHT22;11713;48.506;8.966;2023-06-22T02:58:33;19.90;99.90
23089;DHT22;11713;48.506;8.966;2023-06-22T03:01:07;19.90;99.90
23089;DHT22;11713;48.506;8.966;2023-06-22T03:03:36;19.80;99.90
23089;DHT22;11713;48.506;8.966;2023-06-22T03:06:02;19.70;99.90
23089;DHT22;11713;48.506;8.966;2023-06-22T03:08:29;19.70;99.90
23089;DHT22;11713;48.506;8.966;2023-06-22T03:10:56;19.70;99.90
23089;DHT22;11713;48.506;8.966;2023-06-22T03:13:22;19.70;99.90
23089;DHT22;11713;48.506;8.966;2023-06-22T03:15:48;19.70;99.90
23089;DHT22;11713;48.506;8.966;2023-06-22T03:18:14;19.60;99.90
23089;DHT22;11713;48.506;8.966;2023-06-22T03:20:41;19.60;99.90
23089;DHT22;11713;48.506;8.966;2023-06-22T03:23:08;19.50;99.90
23089;DHT22;11713;48.506;8.966;2023-06-22T03:25:35;19.40;99.90
23089;DHT22;11713;48.506;8.966;2023-06-22T03:28:01;19.40;99.90
23089;DHT22;11713;48.506;8.966;2023-06-22T03:30:27;19.40;99.90
23089;DHT22;11713;48.506;8.966;2023-06-22T03:32:53;19.40;99.90
23089;DHT22;11713;48.506;8.966;2023-06-22T03:35:19;19.40;99.90
23089;DHT22;11713;48.506;8.966;2023-06-22T03:37:46;19.40;99.90
23089;DHT22;11713;48.506;8.966;2023-06-22T03:40:12;19.30;99.90
23089;DHT22;11713;48.506;8.966;2023-06-22T03:42:39;19.20;99.90
23089;DHT22;11713;48.506;8.966;2023-06-22T03:45:05;19.30;99.90
23089;DHT22;11713;48.506;8.966;2023-06-22T03:47:32;19.20;99.90
23089;DHT22;11713;48.506;8.966;2023-06-22T03:49:58;19.20;99.90
23089;DHT22;11713;48.506;8.966;2023-06-22T03:52:24;19.30;99.90
23089;DHT22;11713;48.506;8.966;2023-06-22T03:54:51;19.30;99.90
23089;DHT22;11713;48.506;8.966;2023-06-22T03:57:16;19.30;99.90
23089;DHT22;11713;48.506;8.966;2023-06-22T03:59:42;19.30;99.90
23089;DHT22;11713;48.506;8.966;2023-06-22T04:02:08;19.30;99.90
23089;DHT22;11713;48.506;8.966;2023-06-22T04:04:34;19.30;99.90
23089;DHT22;11713;48.506;8.966;2023-06-22T04:07:00;19.30;99.90
23089;DHT22;11713;48.506;8.966;2023-06-22T04:09:26;19.40;99.90
23089;DHT22;11713;48.506;8.966;2023-06-22T04:11:52;19.40;99.90
23089;DHT22;11713;48.506;8.966;2023-06-22T04:14:19;19.40;99.90
23089;DHT22;11713;48.506;8.966;2023-06-22T04:16:47;19.40;99.90
23089;DHT22;11713;48.506;8.966;2023-06-22T04:19:14;19.40;99.90
23089;DHT22;11713;48.506;8.966;2023-06-22T04:21:44;19.40;99.90
23089;DHT22;11713;48.506;8.966;2023-06-22T04:24:10;19.40;99.90
23089;DHT22;11713;48.506;8.966;2023-06-22T04:26:37;19.40;99.90
23089;DHT22;11713;48.506;8.966;2023-06-22T04:29:07;19.40;99.90
23089;DHT22;11713;48.506;8.966;2023-06-22T04:31:35;19.50;99.90
23089;DHT22;11713;48.506;8.966;2023-06-22T04:34:04;19.50;99.90
23089;DHT22;11713;48.506;8.966;2023-06-22T04:36:40;19.60;99.90
23089;DHT22;11713;48.506;8.966;2023-06-22T04:39:08;19.70;99.90
23089;DHT22;11713;48.506;8.966;2023-06-22T04:41:39;19.70;99.90
23089;DHT22;11713;48.506;8.966;2023-06-22T04:44:12;19.70;99.90
23089;DHT22;11713;48.506;8.966;2023-06-22T04:46:38;19.70;99.90
23089;DHT22;11713;48.506;8.966;2023-06-22T04:49:08;19.80;99.90
23089;DHT22;11713;48.506;8.966;2023-06-22T04:51:42;19.80;99.90
23089;DHT22;11713;48.506;8.966;2023-06-22T04:54:09;19.80;99.90
23089;DHT22;11713;48.506;8.966;2023-06-22T04:56:35;19.90;99.90
23089;DHT22;11713;48.506;8.966;2023-06-22T04:59:02;19.90;99.90
23089;DHT22;11713;48.506;8.966;2023-06-22T05:01:29;20.00;99.90
23089;DHT22;11713;48.506;8.966;2023-06-22T05:03:57;20.10;99.90
23089;DHT22;11713;48.506;8.966;2023-06-22T05:06:28;20.10;99.90
23089;DHT22;11713;48.506;8.966;2023-06-22T05:08:55;20.20;99.90
23089;DHT22;11713;48.506;8.966;2023-06-22T05:11:28;20.20;99.90
23089;DHT22;11713;48.506;8.966;2023-06-22T05:13:55;20.30;99.90
23089;DHT22;11713;48.506;8.966;2023-06-22T05:16:23;20.30;99.90
23089;DHT22;11713;48.506;8.966;2023-06-22T05:18:54;20.40;99.90
23089;DHT22;11713;48.506;8.966;2023-06-22T05:21:25;20.50;99.90
23089;DHT22;11713;48.506;8.966;2023-06-22T05:23:52;20.60;99.90
23089;DHT22;11713;48.506;8.966;2023-06-22T05:26:19;20.70;99.90
23089;DHT22;11713;48.506;8.966;2023-06-22T05:28:46;20.80;99.90
23089;DHT22;11713;48.506;8.966;2023-06-22T05:31:16;20.80;99.90
23089;DHT22;11713;48.506;8.966;2023-06-22T05:33:43;21.00;99.90
23089;DHT22;11713;48.506;8.966;2023-06-22T05:36:09;21.10;99.90
23089;DHT22;11713;48.506;8.966;2023-06-22T05:38:36;21.20;99.90
23089;DHT22;11713;48.506;8.966;2023-06-22T05:41:02;21.40;99.90
23089;DHT22;11713;48.506;8.966;2023-06-22T05:43:28;21.40;99.90
23089;DHT22;11713;48.506;8.966;2023-06-22T05:45:54;21.50;99.90
23089;DHT22;11713;48.506;8.966;2023-06-22T05:48:20;21.60;99.90
23089;DHT22;11713;48.506;8.966;2023-06-22T05:50:46;21.60;99.90
23089;DHT22;11713;48.506;8.966;2023-06-22T05:53:14;21.70;99.90
23089;DHT22;11713;48.506;8.966;2023-06-22T05:55:40;21.80;99.90
23089;DHT22;11713;48.506;8.966;2023-06-22T05:58:06;21.90;99.90
23089;DHT22;11713;48.506;8.966;2023-06-22T06:00:33;21.90;99.90
23089;DHT22;11713;48.506;8.966;2023-06-22T06:03:00;22.00;99.90
23089;DHT22;11713;48.506;8.966;2023-06-22T06:05:33;22.10;99.90
23089;DHT22;11713;48.506;8.966;2023-06-22T06:08:01;22.20;99.90
23089;DHT22;11713;48.506;8.966;2023-06-22T06:10:35;22.30;99.90
23089;DHT22;11713;48.506;8.966;2023-06-22T06:13:01;22.20;99.90
23089;DHT22;11713;48.506;8.966;2023-06-22T06:15:30;22.30;99.90
23089;DHT22;11713;48.506;8.966;2023-06-22T06:17:56;22.40;99.90
23089;DHT22;11713;48.506;8.966;2023-06-22T06:20:24;22.50;99.90
23089;DHT22;11713;48.506;8.966;2023-06-22T06:22:50;22.50;99.90
23089;DHT22;11713;48.506;8.966;2023-06-22T06:25:16;22.50;99.90
23089;DHT22;11713;48.506;8.966;2023-06-22T06:27:45;22.60;99.90
23089;DHT22;11713;48.506;8.966;2023-06-22T06:30:12;22.70;99.90
23089;DHT22;11713;48.506;8.966;2023-06-22T06:32:39;22.80;99.90
23089;DHT22;11713;48.506;8.966;2023-06-22T06:35:09;23.00;99.90
23089;DHT22;11713;48.506;8.966;2023-06-22T06:37:36;23.20;99.90
23089;DHT22;11713;48.506;8.966;2023-06-22T06:40:07;23.30;99.90
23089;DHT22;11713;48.506;8.966;2023-06-22T06:42:54;23.50;99.90
23089;DHT22;11713;48.506;8.966;2023-06-22T06:45:22;23.60;99.90
23089;DHT22;11713;48.506;8.966;2023-06-22T06:47:49;23.80;99.90
23089;DHT22;11713;48.506;8.966;2023-06-22T06:50:16;23.90;99.90
23089;DHT22;11713;48.506;8.966;2023-06-22T06:52:42;24.00;99.90
23089;DHT22;11713;48.506;8.966;2023-06-22T06:55:09;24.10;99.90
23089;DHT22;11713;48.506;8.966;2023-06-22T06:57:38;24.30;99.90
23089;DHT22;11713;48.506;8.966;2023-06-22T07:00:09;24.40;99.90
23089;DHT22;11713;48.506;8.966;2023-06-22T07:02:38;24.60;99.90
23089;DHT22;11713;48.506;8.966;2023-06-22T07:05:05;24.80;99.90
23089;DHT22;11713;48.506;8.966;2023-06-22T07:07:32;24.80;99.90
23089;DHT22;11713;48.506;8.966;2023-06-22T07:09:58;25.00;99.90
23089;DHT22;11713;48.506;8.966;2023-06-22T07:12:24;25.10;99.90
23089;DHT22;11713;48.506;8.966;2023-06-22T07:14:49;25.30;99.90
23089;DHT22;11713;48.506;8.966;2023-06-22T07:17:16;25.40;99.90
23089;DHT22;11713;48.506;8.966;2023-06-22T07:19:42;25.50;99.90
23089;DHT22;11713;48.506;8.966;2023-06-22T07:22:08;25.60;99.90
23089;DHT22;11713;48.506;8.966;2023-06-22T07:24:34;25.80;99.90
23089;DHT22;11713;48.506;8.966;2023-06-22T07:27:00;25.90;99.90
23089;DHT22;11713;48.506;8.966;2023-06-22T07:29:26;26.00;99.90
23089;DHT22;11713;48.506;8.966;2023-06-22T07:31:52;26.10;99.90
23089;DHT22;11713;48.506;8.966;2023-06-22T07:34:19;26.20;99.90
23089;DHT22;11713;48.506;8.966;2023-06-22T07:36:45;26.30;99.90
23089;DHT22;11713;48.506;8.966;2023-06-22T07:39:11;26.30;99.90
23089;DHT22;11713;48.506;8.966;2023-06-22T07:41:39;26.40;99.90
23089;DHT22;11713;48.506;8.966;2023-06-22T07:44:06;26.50;99.90
23089;DHT22;11713;48.506;8.966;2023-06-22T07:46:33;26.50;99.90
23089;DHT22;11713;48.506;8.966;2023-06-22T07:48:59;26.60;99.90
23089;DHT22;11713;48.506;8.966;2023-06-22T07:51:25;26.70;99.90
23089;DHT22;11713;48.506;8.966;2023-06-22T07:53:51;26.70;99.90
23089;DHT22;11713;48.506;8.966;2023-06-22T07:56:17;26.70;99.90
23089;DHT22;11713;48.506;8.966;2023-06-22T07:58:47;26.70;99.90
23089;DHT22;11713;48.506;8.966;2023-06-22T08:01:14;26.60;99.90
23089;DHT22;11713;48.506;8.966;2023-06-22T08:03:40;26.50;99.90
23089;DHT22;11713;48.506;8.966;2023-06-22T08:06:07;26.50;99.90
23089;DHT22;11713;48.506;8.966;2023-06-22T08:08:35;26.70;99.90
23089;DHT22;11713;48.506;8.966;2023-06-22T08:11:01;26.60;99.90
23089;DHT22;11713;48.506;8.966;2023-06-22T08:13:27;26.60;99.90
23089;DHT22;11713;48.506;8.966;2023-06-22T08:15:53;26.60;99.90
23089;DHT22;11713;48.506;8.966;2023-06-22T08:18:19;26.50;99.90
23089;DHT22;11713;48.506;8.966;2023-06-22T08:20:45;26.50;99.90
23089;DHT22;11713;48.506;8.966;2023-06-22T08:23:11;26.40;99.90
23089;DHT22;11713;48.506;8.966;2023-06-22T08:25:37;26.30;99.90
23089;DHT22;11713;48.506;8.966;2023-06-22T08:28:04;26.30;99.90
23089;DHT22;11713;48.506;8.966;2023-06-22T08:30:30;26.20;99.90
23089;DHT22;11713;48.506;8.966;2023-06-22T08:32:56;26.30;99.90
23089;DHT22;11713;48.506;8.966;2023-06-22T08:35:22;26.40;99.90
23089;DHT22;11713;48.506;8.966;2023-06-22T08:37:49;26.40;99.90
23089;DHT22;11713;48.506;8.966;2023-06-22T08:40:20;26.50;99.90
23089;DHT22;11713;48.506;8.966;2023-06-22T08:42:47;26.60;99.90
23089;DHT22;11713;48.506;8.966;2023-06-22T08:45:13;26.70;99.90
23089;DHT22;11713;48.506;8.966;2023-06-22T08:47:39;26.80;99.90
23089;DHT22;11713;48.506;8.966;2023-06-22T08:50:10;26.80;99.90
23089;DHT22;11713;48.506;8.966;2023-06-22T08:52:37;26.90;99.90
23089;DHT22;11713;48.506;8.966;2023-06-22T08:55:04;27.00;99.90
23089;DHT22;11713;48.506;8.966;2023-06-22T08:57:30;27.10;99.90
23089;DHT22;11713;48.506;8.966;2023-06-22T08:59:58;27.30;99.90
23089;DHT22;11713;48.506;8.966;2023-06-22T09:02:25;27.70;99.90
23089;DHT22;11713;48.506;8.966;2023-06-22T09:04:51;28.00;99.90
23089;DHT22;11713;48.506;8.966;2023-06-22T09:07:21;28.20;99.90
23089;DHT22;11713;48.506;8.966;2023-06-22T09:09:49;28.00;99.90
23089;DHT22;11713;48.506;8.966;2023-06-22T09:12:15;28.10;99.90
23089;DHT22;11713;48.506;8.966;2023-06-22T09:14:41;28.10;99.90
23089;DHT22;11713;48.506;8.966;2023-06-22T09:17:06;28.10;99.90
23089;DHT22;11713;48.506;8.966;2023-06-22T09:19:32;28.30;99.90
23089;DHT22;11713;48.506;8.966;2023-06-22T09:21:58;28.30;99.90
23089;DHT22;11713;48.506;8.966;2023-06-22T09:24:25;28.30;99.90
23089;DHT22;11713;48.506;8.966;2023-06-22T09:26:51;28.40;99.90
23089;DHT22;11713;48.506;8.966;2023-06-22T09:29:17;28.60;99.90
23089;DHT22;11713;48.506;8.966;2023-06-22T09:31:42;28.70;99.90
23089;DHT22;11713;48.506;8.966;2023-06-22T09:34:09;28.70;99.90
23089;DHT22;11713;48.506;8.966;2023-06-22T09:36:35;28.60;99.90
23089;DHT22;11713;48.506;8.966;2023-06-22T09:39:02;28.70;99.90
23089;DHT22;11713;48.506;8.966;2023-06-22T09:41:32;28.80;99.90
23089;DHT22;11713;48.506;8.966;2023-06-22T09:43:57;28.90;99.90
23089;DHT22;11713;48.506;8.966;2023-06-22T09:46:23;29.10;99.90
23089;DHT22;11713;48.506;8.966;2023-06-22T09:48:51;29.30;99.90
23089;DHT22;11713;48.506;8.966;2023-06-22T09:51:17;29.40;99.90
23089;DHT22;11713;48.506;8.966;2023-06-22T09:53:45;29.50;99.90
23089;DHT22;11713;48.506;8.966;2023-06-22T09:56:11;29.60;99.90
23089;DHT22;11713;48.506;8.966;2023-06-22T09:58:43;29.60;99.90
23089;DHT22;11713;48.506;8.966;2023-06-22T10:01:10;29.50;99.90
23089;DHT22;11713;48.506;8.966;2023-06-22T10:03:37;29.60;99.90
23089;DHT22;11713;48.506;8.966;2023-06-22T10:06:04;29.60;99.90
23089;DHT22;11713;48.506;8.966;2023-06-22T10:08:31;29.60;99.90
23089;DHT22;11713;48.506;8.966;2023-06-22T10:10:56;29.60;99.90
23089;DHT22;11713;48.506;8.966;2023-06-22T10:13:22;29.80;99.90
23089;DHT22;11713;48.506;8.966;2023-06-22T10:15:49;30.00;99.90
23089;DHT22;11713;48.506;8.966;2023-06-22T10:18:18;30.20;99.90
23089;DHT22;11713;48.506;8.966;2023-06-22T10:20:47;30.30;99.90
23089;DHT22;11713;48.506;8.966;2023-06-22T10:23:15;30.50;99.90
23089;DHT22;11713;48.506;8.966;2023-06-22T10:25:41;30.60;99.90
23089;DHT22;11713;48.506;8.966;2023-06-22T10:28:08;30.50;99.90
23089;DHT22;11713;48.506;8.966;2023-06-22T10:30:34;30.40;99.90
23089;DHT22;11713;48.506;8.966;2023-06-22T10:33:00;30.60;99.90
23089;DHT22;11713;48.506;8.966;2023-06-22T10:35:26;30.70;99.90
23089;DHT22;11713;48.506;8.966;2023-06-22T10:37:54;30.80;99.90
23089;DHT22;11713;48.506;8.966;2023-06-22T10:40:21;31.00;99.90
23089;DHT22;11713;48.506;8.966;2023-06-22T10:42:47;31.20;99.90
23089;DHT22;11713;48.506;8.966;2023-06-22T10:45:13;31.20;99.90
23089;DHT22;11713;48.506;8.966;2023-06-22T10:47:39;31.30;99.90
23089;DHT22;11713;48.506;8.966;2023-06-22T10:50:08;31.30;99.90
23089;DHT22;11713;48.506;8.966;2023-06-22T10:52:34;31.20;99.90
23089;DHT22;11713;48.506;8.966;2023-06-22T10:55:01;31.30;99.90
23089;DHT22;11713;48.506;8.966;2023-06-22T10:57:26;31.10;99.90
23089;DHT22;11713;48.506;8.966;2023-06-22T10:59:53;31.10;99.90
23089;DHT22;11713;48.506;8.966;2023-06-22T11:02:20;31.10;99.90
23089;DHT22;11713;48.506;8.966;2023-06-22T11:04:46;31.00;99.90
23089;DHT22;11713;48.506;8.966;2023-06-22T11:07:13;31.00;99.90
23089;DHT22;11713;48.506;8.966;2023-06-22T11:09:39;31.00;99.90
23089;DHT22;11713;48.506;8.966;2023-06-22T11:12:05;31.10;99.90
23089;DHT22;11713;48.506;8.966;2023-06-22T11:14:31;31.20;99.90
23089;DHT22;11713;48.506;8.966;2023-06-22T11:16:59;31.20;99.90
23089;DHT22;11713;48.506;8.966;2023-06-22T11:19:26;31.20;99.90
23089;DHT22;11713;48.506;8.966;2023-06-22T11:21:52;31.40;99.90
23089;DHT22;11713;48.506;8.966;2023-06-22T11:24:18;31.70;99.90
23089;DHT22;11713;48.506;8.966;2023-06-22T11:26:44;31.80;99.90
23089;DHT22;11713;48.506;8.966;2023-06-22T11:29:10;32.00;99.90
23089;DHT22;11713;48.506;8.966;2023-06-22T11:31:35;32.00;99.90
23089;DHT22;11713;48.506;8.966;2023-06-22T11:34:02;31.90;99.90
23089;DHT22;11713;48.506;8.966;2023-06-22T11:36:29;31.70;99.90
23089;DHT22;11713;48.506;8.966;2023-06-22T11:38:58;31.40;99.90
23089;DHT22;11713;48.506;8.966;2023-06-22T11:41:24;31.10;99.90
23089;DHT22;11713;48.506;8.966;2023-06-22T11:43:50;31.10;99.90
23089;DHT22;11713;48.506;8.966;2023-06-22T11:46:17;30.90;99.90
23089;DHT22;11713;48.506;8.966;2023-06-22T11:48:43;30.90;99.90
23089;DHT22;11713;48.506;8.966;2023-06-22T11:51:09;30.80;99.90
23089;DHT22;11713;48.506;8.966;2023-06-22T11:53:35;30.70;99.90
23089;DHT22;11713;48.506;8.966;2023-06-22T11:56:01;30.50;99.90
23089;DHT22;11713;48.506;8.966;2023-06-22T11:58:27;30.40;99.90
23089;DHT22;11713;48.506;8.966;2023-06-22T12:00:56;30.30;99.90
23089;DHT22;11713;48.506;8.966;2023-06-22T12:03:22;30.30;99.90
23089;DHT22;11713;48.506;8.966;2023-06-22T12:05:50;30.40;99.90
23089;DHT22;11713;48.506;8.966;2023-06-22T12:08:20;30.40;99.90
23089;DHT22;11713;48.506;8.966;2023-06-22T12:10:49;30.20;99.90
23089;DHT22;11713;48.506;8.966;2023-06-22T12:13:16;30.10;99.90
23089;DHT22;11713;48.506;8.966;2023-06-22T12:15:42;30.20;99.90
23089;DHT22;11713;48.506;8.966;2023-06-22T12:18:08;30.20;99.90
23089;DHT22;11713;48.506;8.966;2023-06-22T12:20:35;30.20;99.90
23089;DHT22;11713;48.506;8.966;2023-06-22T12:23:01;30.20;99.90
23089;DHT22;11713;48.506;8.966;2023-06-22T12:25:28;30.20;99.90
23089;DHT22;11713;48.506;8.966;2023-06-22T12:27:54;30.30;99.90
23089;DHT22;11713;48.506;8.966;2023-06-22T12:30:21;30.30;99.90
23089;DHT22;11713;48.506;8.966;2023-06-22T12:32:48;30.20;99.90
23089;DHT22;11713;48.506;8.966;2023-06-22T12:35:15;30.10;99.90
23089;DHT22;11713;48.506;8.966;2023-06-22T12:37:41;30.00;99.90
23089;DHT22;11713;48.506;8.966;2023-06-22T12:40:10;30.00;99.90
23089;DHT22;11713;48.506;8.966;2023-06-22T12:42:36;30.00;99.90
23089;DHT22;11713;48.506;8.966;2023-06-22T12:45:02;30.10;99.90
23089;DHT22;11713;48.506;8.966;2023-06-22T12:47:28;30.10;99.90
23089;DHT22;11713;48.506;8.966;2023-06-22T12:49:54;30.10;99.90
23089;DHT22;11713;48.506;8.966;2023-06-22T12:52:20;30.10;99.90
23089;DHT22;11713;48.506;8.966;2023-06-22T12:54:46;30.20;99.90
23089;DHT22;11713;48.506;8.966;2023-06-22T12:57:11;30.20;99.90
23089;DHT22;11713;48.506;8.966;2023-06-22T12:59:37;30.20;99.90
23089;DHT22;11713;48.506;8.966;2023-06-22T13:02:03;30.30;99.90
23089;DHT22;11713;48.506;8.966;2023-06-22T13:04:29;30.30;99.90
23089;DHT22;11713;48.506;8.966;2023-06-22T13:06:55;30.40;99.90
23089;DHT22;11713;48.506;8.966;2023-06-22T13:09:21;30.60;99.90
23089;DHT22;11713;48.506;8.966;2023-06-22T13:11:47;30.70;99.90
23089;DHT22;11713;48.506;8.966;2023-06-22T13:14:12;30.90;99.90
23089;DHT22;11713;48.506;8.966;2023-06-22T13:16:38;31.00;99.90
23089;DHT22;11713;48.506;8.966;2023-06-22T13:19:04;30.90;99.90
23089;DHT22;11713;48.506;8.966;2023-06-22T13:21:30;31.00;99.90
23089;DHT22;11713;48.506;8.966;2023-06-22T13:23:56;31.20;99.90
23089;DHT22;11713;48.506;8.966;2023-06-22T13:26:22;31.10;99.90
23089;DHT22;11713;48.506;8.966;2023-06-22T13:28:49;31.00;99.90
23089;DHT22;11713;48.506;8.966;2023-06-22T13:31:15;31.00;99.90
23089;DHT22;11713;48.506;8.966;2023-06-22T13:33:41;31.00;99.90
23089;DHT22;11713;48.506;8.966;2023-06-22T13:36:07;30.90;99.90
23089;DHT22;11713;48.506;8.966;2023-06-22T13:38:35;31.00;99.90
23089;DHT22;11713;48.506;8.966;2023-06-22T13:41:05;30.90;99.90
23089;DHT22;11713;48.506;8.966;2023-06-22T13:43:32;30.90;99.90
23089;DHT22;11713;48.506;8.966;2023-06-22T13:45:58;31.00;99.90
23089;DHT22;11713;48.506;8.966;2023-06-22T13:48:25;31.10;99.90
23089;DHT22;11713;48.506;8.966;2023-06-22T13:50:52;31.20;99.90
23089;DHT22;11713;48.506;8.966;2023-06-22T13:53:18;31.20;99.90
23089;DHT22;11713;48.506;8.966;2023-06-22T13:55:45;31.30;99.90
23089;DHT22;11713;48.506;8.966;2023-06-22T13:58:12;31.30;99.90
23089;DHT22;11713;48.506;8.966;2023-06-22T14:00:39;31.20;99.90
23089;DHT22;11713;48.506;8.966;2023-06-22T14:03:05;31.20;99.90
23089;DHT22;11713;48.506;8.966;2023-06-22T14:05:31;31.10;99.90
23089;DHT22;11713;48.506;8.966;2023-06-22T14:07:58;31.00;99.90
23089;DHT22;11713;48.506;8.966;2023-06-22T14:10:30;31.00;99.90
23089;DHT22;11713;48.506;8.966;2023-06-22T14:12:58;31.10;99.90
23089;DHT22;11713;48.506;8.966;2023-06-22T14:15:27;31.10;99.90
23089;DHT22;11713;48.506;8.966;2023-06-22T14:17:56;31.10;99.90
23089;DHT22;11713;48.506;8.966;2023-06-22T14:20:22;31.20;99.90
23089;DHT22;11713;48.506;8.966;2023-06-22T14:22:49;31.40;99.90
23089;DHT22;11713;48.506;8.966;2023-06-22T14:25:15;31.60;99.90
23089;DHT22;11713;48.506;8.966;2023-06-22T14:27:41;31.80;99.90
23089;DHT22;11713;48.506;8.966;2023-06-22T14:30:07;32.00;99.90
23089;DHT22;11713;48.506;8.966;2023-06-22T14:32:34;32.10;99.90
23089;DHT22;11713;48.506;8.966;2023-06-22T14:35:00;32.20;99.90
23089;DHT22;11713;48.506;8.966;2023-06-22T14:37:26;32.30;99.90
23089;DHT22;11713;48.506;8.966;2023-06-22T14:39:52;32.20;99.90
23089;DHT22;11713;48.506;8.966;2023-06-22T14:42:18;32.20;99.90
23089;DHT22;11713;48.506;8.966;2023-06-22T14:44:44;32.10;99.90
23089;DHT22;11713;48.506;8.966;2023-06-22T14:47:10;32.00;99.90
23089;DHT22;11713;48.506;8.966;2023-06-22T14:49:37;32.00;99.90
23089;DHT22;11713;48.506;8.966;2023-06-22T14:52:02;31.70;99.90
23089;DHT22;11713;48.506;8.966;2023-06-22T14:54:29;31.70;99.90
23089;DHT22;11713;48.506;8.966;2023-06-22T14:56:55;31.70;99.90
23089;DHT22;11713;48.506;8.966;2023-06-22T14:59:21;31.50;99.90
23089;DHT22;11713;48.506;8.966;2023-06-22T15:01:47;31.40;99.90
23089;DHT22;11713;48.506;8.966;2023-06-22T15:04:13;31.40;99.90
23089;DHT22;11713;48.506;8.966;2023-06-22T15:06:38;31.30;99.90
23089;DHT22;11713;48.506;8.966;2023-06-22T15:09:04;31.30;99.90
23089;DHT22;11713;48.506;8.966;2023-06-22T15:11:30;31.30;99.90
23089;DHT22;11713;48.506;8.966;2023-06-22T15:13:58;31.20;99.90
23089;DHT22;11713;48.506;8.966;2023-06-22T15:16:25;31.00;99.90
23089;DHT22;11713;48.506;8.966;2023-06-22T15:18:51;30.90;99.90
23089;DHT22;11713;48.506;8.966;2023-06-22T15:21:17;30.70;99.90
23089;DHT22;11713;48.506;8.966;2023-06-22T15:23:43;30.50;99.90
23089;DHT22;11713;48.506;8.966;2023-06-22T15:26:09;30.30;99.90
23089;DHT22;11713;48.506;8.966;2023-06-22T15:28:39;30.20;99.90
23089;DHT22;11713;48.506;8.966;2023-06-22T15:31:06;30.20;99.90
23089;DHT22;11713;48.506;8.966;2023-06-22T15:33:32;30.10;99.90
23089;DHT22;11713;48.506;8.966;2023-06-22T15:35:58;29.90;99.90
23089;DHT22;11713;48.506;8.966;2023-06-22T15:38:30;29.70;99.90